sensor_id;sensor_type;location;lat;lon;timestamp;pressure;altitude;pressure_sealevel;temperature;humidity
6224;BME280;3145;42.726;23.342;2023-02-20T00:01:28;95655.56;;;10.53;nan
6224;BME280;3145;42.726;23.342;2023-02-20T00:03:55;95660.34;;;10.50;nan
6224;BME280;3145;42.726;23.342;2023-02-20T00:06:21;95643.75;;;10.33;nan
6224;BME280;3145;42.726;23.342;2023-02-20T00:08:48;95659.03;;;10.46;nan
6224;BME280;3145;42.726;23.342;2023-02-20T00:11:15;95660.50;;;10.48;nan
6224;BME280;3145;42.726;23.342;2023-02-20T00:13:45;95657.22;;;10.46;nan
6224;BME280;3145;42.726;23.342;2023-02-20T00:16:14;95639.78;;;10.21;nan
6224;BME280;3145;42.726;23.342;2023-02-20T00:18:41;95673.75;;;10.32;nan
6224;BME280;3145;42.726;23.342;2023-02-20T00:21:07;95625.97;;;10.03;nan
6224;BME280;3145;42.726;23.342;2023-02-20T00:23:34;95640.81;;;10.12;nan
6224;BME280;3145;42.726;23.342;2023-02-20T00:26:01;95629.59;;;10.02;nan
6224;BME280;3145;42.726;23.342;2023-02-20T00:28:28;95659.97;;;10.14;nan
6224;BME280;3145;42.726;23.342;2023-02-20T00:30:56;95669.50;;;10.23;nan
6224;BME280;3145;42.726;23.342;2023-02-20T00:33:23;95540.66;;;9.40;nan
6224;BME280;3145;42.726;23.342;2023-02-20T00:35:50;95635.53;;;9.96;nan
6224;BME280;3145;42.726;23.342;2023-02-20T00:38:17;95654.53;;;10.08;nan
6224;BME280;3145;42.726;23.342;2023-02-20T00:40:44;95646.78;;;10.06;nan
6224;BME280;3145;42.726;23.342;2023-02-20T00:43:11;95644.59;;;10.02;nan
6224;BME280;3145;42.726;23.342;2023-02-20T00:45:38;95639.81;;;9.89;nan
6224;BME280;3145;42.726;23.342;2023-02-20T00:48:06;95631.28;;;9.87;nan
6224;BME280;3145;42.726;23.342;2023-02-20T00:50:33;95608.88;;;9.59;nan
6224;BME280;3145;42.726;23.342;2023-02-20T00:52:59;95653.03;;;9.89;nan
6224;BME280;3145;42.726;23.342;2023-02-20T00:55:26;95671.00;;;9.94;nan
6224;BME280;3145;42.726;23.342;2023-02-20T00:57:53;95678.09;;;9.93;nan
6224;BME280;3145;42.726;23.342;2023-02-20T01:00:22;95662.94;;;9.79;nan
6224;BME280;3145;42.726;23.342;2023-02-20T01:02:49;95680.09;;;9.91;nan
6224;BME280;3145;42.726;23.342;2023-02-20T01:05:17;95688.00;;;9.91;nan
6224;BME280;3145;42.726;23.342;2023-02-20T01:07:44;95649.44;;;9.58;nan
6224;BME280;3145;42.726;23.342;2023-02-20T01:10:11;95691.28;;;9.85;nan
6224;BME280;3145;42.726;23.342;2023-02-20T01:12:39;95672.03;;;9.61;nan
6224;BME280;3145;42.726;23.342;2023-02-20T01:15:07;95713.72;;;9.89;nan
6224;BME280;3145;42.726;23.342;2023-02-20T01:17:34;95711.59;;;9.85;nan
6224;BME280;3145;42.726;23.342;2023-02-20T01:20:01;95718.03;;;9.82;nan
6224;BME280;3145;42.726;23.342;2023-02-20T01:22:29;95722.16;;;9.77;nan
6224;BME280;3145;42.726;23.342;2023-02-20T01:24:55;95729.25;;;9.84;nan
6224;BME280;3145;42.726;23.342;2023-02-20T01:27:22;95733.88;;;9.82;nan
6224;BME280;3145;42.726;23.342;2023-02-20T01:29:49;95738.78;;;9.85;nan
6224;BME280;3145;42.726;23.342;2023-02-20T01:32:16;95730.41;;;9.90;nan
6224;BME280;3145;42.726;23.342;2023-02-20T01:34:42;95730.56;;;9.88;nan
6224;BME280;3145;42.726;23.342;2023-02-20T01:37:11;95729.56;;;9.89;nan
6224;BME280;3145;42.726;23.342;2023-02-20T01:39:40;95731.22;;;9.90;nan
6224;BME280;3145;42.726;23.342;2023-02-20T01:42:12;95727.59;;;9.91;nan
6224;BME280;3145;42.726;23.342;2023-02-20T01:44:42;95725.13;;;9.82;nan
6224;BME280;3145;42.726;23.342;2023-02-20T01:47:11;95731.56;;;9.87;nan
6224;BME280;3145;42.726;23.342;2023-02-20T01:49:43;95740.63;;;9.93;nan
6224;BME280;3145;42.726;23.342;2023-02-20T01:52:13;95733.19;;;9.96;nan
6224;BME280;3145;42.726;23.342;2023-02-20T01:54:45;95728.59;;;9.98;nan
6224;BME280;3145;42.726;23.342;2023-02-20T01:57:17;95731.72;;;10.02;nan
6224;BME280;3145;42.726;23.342;2023-02-20T01:59:46;95717.34;;;10.04;nan
6224;BME280;3145;42.726;23.342;2023-02-20T02:02:14;95713.06;;;9.95;nan
6224;BME280;3145;42.726;23.342;2023-02-20T02:04:43;95719.00;;;9.97;nan
6224;BME280;3145;42.726;23.342;2023-02-20T02:07:10;95698.56;;;9.83;nan
6224;BME280;3145;42.726;23.342;2023-02-20T02:09:43;95723.31;;;9.98;nan
6224;BME280;3145;42.726;23.342;2023-02-20T02:12:13;95735.03;;;9.88;nan
6224;BME280;3145;42.726;23.342;2023-02-20T02:14:40;95728.59;;;9.90;nan
6224;BME280;3145;42.726;23.342;2023-02-20T02:17:16;95731.56;;;9.87;nan
6224;BME280;3145;42.726;23.342;2023-02-20T02:20:12;95734.03;;;9.73;nan
6224;BME280;3145;42.726;23.342;2023-02-20T02:23:10;95721.84;;;9.72;nan
6224;BME280;3145;42.726;23.342;2023-02-20T02:25:51;95716.34;;;9.49;nan
6224;BME280;3145;42.726;23.342;2023-02-20T02:28:40;95750.00;;;9.55;nan
6224;BME280;3145;42.726;23.342;2023-02-20T02:34:45;95742.66;;;9.25;nan
6224;BME280;3145;42.726;23.342;2023-02-20T02:37:21;95746.16;;;9.25;nan
6224;BME280;3145;42.726;23.342;2023-02-20T02:39:55;95743.16;;;9.20;nan
6224;BME280;3145;42.726;23.342;2023-02-20T02:42:34;95695.09;;;8.77;nan
6224;BME280;3145;42.726;23.342;2023-02-20T02:45:11;95715.38;;;8.84;nan
6224;BME280;3145;42.726;23.342;2023-02-20T02:47:45;95730.66;;;8.81;nan
6224;BME280;3145;42.726;23.342;2023-02-20T02:50:17;95756.41;;;8.87;nan
6224;BME280;3145;42.726;23.342;2023-02-20T02:52:48;95740.19;;;8.74;nan
6224;BME280;3145;42.726;23.342;2023-02-20T02:55:20;95780.25;;;8.85;nan
6224;BME280;3145;42.726;23.342;2023-02-20T02:57:47;95783.34;;;8.81;nan
6224;BME280;3145;42.726;23.342;2023-02-20T03:00:16;95752.91;;;8.53;nan
6224;BME280;3145;42.726;23.342;2023-02-20T03:02:59;95779.34;;;8.69;nan
6224;BME280;3145;42.726;23.342;2023-02-20T03:05:30;95786.16;;;8.79;nan
6224;BME280;3145;42.726;23.342;2023-02-20T03:08:09;95784.00;;;8.75;nan
6224;BME280;3145;42.726;23.342;2023-02-20T03:10:39;95792.88;;;8.74;nan
6224;BME280;3145;42.726;23.342;2023-02-20T03:13:09;95791.31;;;8.63;nan
6224;BME280;3145;42.726;23.342;2023-02-20T03:15:40;95760.16;;;8.51;nan
6224;BME280;3145;42.726;23.342;2023-02-20T03:18:16;95790.53;;;8.63;nan
6224;BME280;3145;42.726;23.342;2023-02-20T03:20:48;95758.09;;;8.37;nan
6224;BME280;3145;42.726;23.342;2023-02-20T03:23:21;95803.50;;;8.56;nan
6224;BME280;3145;42.726;23.342;2023-02-20T03:25:52;95798.31;;;8.47;nan
6224;BME280;3145;42.726;23.342;2023-02-20T03:28:22;95811.50;;;8.47;nan
6224;BME280;3145;42.726;23.342;2023-02-20T03:30:54;95828.25;;;8.46;nan
6224;BME280;3145;42.726;23.342;2023-02-20T03:33:28;95823.97;;;8.45;nan
6224;BME280;3145;42.726;23.342;2023-02-20T03:36:19;95819.34;;;8.39;nan
6224;BME280;3145;42.726;23.342;2023-02-20T03:39:09;95814.38;;;8.36;nan
6224;BME280;3145;42.726;23.342;2023-02-20T03:41:55;95822.63;;;8.41;nan
6224;BME280;3145;42.726;23.342;2023-02-20T03:44:43;95823.97;;;8.45;nan
6224;BME280;3145;42.726;23.342;2023-02-20T03:47:13;95827.59;;;8.44;nan
6224;BME280;3145;42.726;23.342;2023-02-20T03:49:41;95820.53;;;8.44;nan
6224;BME280;3145;42.726;23.342;2023-02-20T03:52:10;95818.19;;;8.41;nan
6224;BME280;3145;42.726;23.342;2023-02-20T03:54:39;95812.09;;;8.41;nan
6224;BME280;3145;42.726;23.342;2023-02-20T03:57:10;95814.38;;;8.36;nan
6224;BME280;3145;42.726;23.342;2023-02-20T03:59:41;95792.13;;;8.13;nan
6224;BME280;3145;42.726;23.342;2023-02-20T04:02:13;95808.41;;;8.16;nan
6224;BME280;3145;42.726;23.342;2023-02-20T04:04:45;95822.50;;;8.25;nan
6224;BME280;3145;42.726;23.342;2023-02-20T04:07:16;95823.00;;;8.28;nan
6224;BME280;3145;42.726;23.342;2023-02-20T04:09:46;95823.84;;;8.29;nan
6224;BME280;3145;42.726;23.342;2023-02-20T04:12:16;95834.09;;;8.32;nan
6224;BME280;3145;42.726;23.342;2023-02-20T04:14:45;95769.28;;;7.96;nan
6224;BME280;3145;42.726;23.342;2023-02-20T04:17:19;95831.69;;;8.21;nan
6224;BME280;3145;42.726;23.342;2023-02-20T04:19:47;95808.81;;;8.04;nan
6224;BME280;3145;42.726;23.342;2023-02-20T04:22:17;95818.56;;;8.11;nan
6224;BME280;3145;42.726;23.342;2023-02-20T04:24:49;95803.94;;;8.09;nan
6224;BME280;3145;42.726;23.342;2023-02-20T04:27:18;95839.94;;;8.26;nan
6224;BME280;3145;42.726;23.342;2023-02-20T04:29:45;95843.25;;;8.28;nan
6224;BME280;3145;42.726;23.342;2023-02-20T04:32:12;95844.44;;;8.16;nan
6224;BME280;3145;42.726;23.342;2023-02-20T04:34:39;95827.09;;;8.05;nan
6224;BME280;3145;42.726;23.342;2023-02-20T04:37:09;95838.34;;;8.15;nan
6224;BME280;3145;42.726;23.342;2023-02-20T04:39:36;95822.63;;;8.06;nan
6224;BME280;3145;42.726;23.342;2023-02-20T04:42:05;95829.78;;;8.13;nan
6224;BME280;3145;42.726;23.342;2023-02-20T04:44:32;95839.03;;;8.00;nan
6224;BME280;3145;42.726;23.342;2023-02-20T04:47:01;95827.97;;;7.96;nan
6224;BME280;3145;42.726;23.342;2023-02-20T04:49:28;95809.50;;;7.88;nan
6224;BME280;3145;42.726;23.342;2023-02-20T04:51:55;95838.34;;;7.98;nan
6224;BME280;3145;42.726;23.342;2023-02-20T04:54:22;95851.44;;;8.07;nan
6224;BME280;3145;42.726;23.342;2023-02-20T04:56:49;95824.63;;;7.86;nan
6224;BME280;3145;42.726;23.342;2023-02-20T04:59:17;95854.69;;;8.01;nan
6224;BME280;3145;42.726;23.342;2023-02-20T05:01:44;95860.91;;;8.00;nan
6224;BME280;3145;42.726;23.342;2023-02-20T05:04:16;95862.94;;;7.89;nan
6224;BME280;3145;42.726;23.342;2023-02-20T05:06:45;95875.34;;;7.96;nan
6224;BME280;3145;42.726;23.342;2023-02-20T05:09:12;95866.41;;;7.89;nan
6224;BME280;3145;42.726;23.342;2023-02-20T05:11:39;95861.81;;;7.91;nan
6224;BME280;3145;42.726;23.342;2023-02-20T05:14:06;95863.22;;;7.86;nan
6224;BME280;3145;42.726;23.342;2023-02-20T05:16:36;95847.59;;;7.67;nan
6224;BME280;3145;42.726;23.342;2023-02-20T05:19:02;95857.16;;;7.85;nan
6224;BME280;3145;42.726;23.342;2023-02-20T05:21:29;95871.44;;;7.83;nan
6224;BME280;3145;42.726;23.342;2023-02-20T05:24:13;95819.47;;;7.50;nan
6224;BME280;3145;42.726;23.342;2023-02-20T05:26:40;95873.69;;;7.78;nan
6224;BME280;3145;42.726;23.342;2023-02-20T05:29:07;95851.88;;;7.50;nan
6224;BME280;3145;42.726;23.342;2023-02-20T05:31:37;95898.84;;;7.80;nan
6224;BME280;3145;42.726;23.342;2023-02-20T05:34:04;95913.69;;;7.81;nan
6224;BME280;3145;42.726;23.342;2023-02-20T05:36:31;95907.66;;;7.89;nan
6224;BME280;3145;42.726;23.342;2023-02-20T05:38:58;95897.66;;;8.10;nan
6224;BME280;3145;42.726;23.342;2023-02-20T05:41:25;95901.06;;;8.55;nan
6224;BME280;3145;42.726;23.342;2023-02-20T05:43:52;95915.88;;;8.99;nan
6224;BME280;3145;42.726;23.342;2023-02-20T05:46:22;95913.22;;;9.24;nan
6224;BME280;3145;42.726;23.342;2023-02-20T05:48:50;95924.44;;;9.60;nan
6224;BME280;3145;42.726;23.342;2023-02-20T05:51:21;95891.84;;;9.77;nan
6224;BME280;3145;42.726;23.342;2023-02-20T05:53:48;95902.03;;;10.14;nan
6224;BME280;3145;42.726;23.342;2023-02-20T05:56:15;95916.06;;;10.06;nan
6224;BME280;3145;42.726;23.342;2023-02-20T05:58:42;95920.38;;;10.31;nan
6224;BME280;3145;42.726;23.342;2023-02-20T06:01:15;95927.00;;;10.51;nan
6224;BME280;3145;42.726;23.342;2023-02-20T06:03:42;95883.91;;;10.35;nan
6224;BME280;3145;42.726;23.342;2023-02-20T06:06:10;95929.81;;;10.66;nan
6224;BME280;3145;42.726;23.342;2023-02-20T06:08:37;95933.63;;;10.71;nan
6224;BME280;3145;42.726;23.342;2023-02-20T06:11:04;95918.44;;;10.57;nan
6224;BME280;3145;42.726;23.342;2023-02-20T06:13:31;95946.34;;;10.76;nan
6224;BME280;3145;42.726;23.342;2023-02-20T06:15:58;95945.50;;;10.67;nan
6224;BME280;3145;42.726;23.342;2023-02-20T06:18:24;95935.25;;;10.56;nan
6224;BME280;3145;42.726;23.342;2023-02-20T06:20:51;95900.72;;;10.26;nan
6224;BME280;3145;42.726;23.342;2023-02-20T06:23:19;95945.81;;;10.56;nan
6224;BME280;3145;42.726;23.342;2023-02-20T06:25:46;95966.50;;;11.01;nan
6224;BME280;3145;42.726;23.342;2023-02-20T06:28:13;95926.75;;;11.41;nan
6224;BME280;3145;42.726;23.342;2023-02-20T06:30:39;95980.34;;;12.05;nan
6224;BME280;3145;42.726;23.342;2023-02-20T06:33:06;95938.94;;;11.58;nan
6224;BME280;3145;42.726;23.342;2023-02-20T06:35:33;95939.38;;;11.23;nan
6224;BME280;3145;42.726;23.342;2023-02-20T06:37:59;95950.88;;;11.62;nan
6224;BME280;3145;42.726;23.342;2023-02-20T06:40:28;95952.78;;;11.84;nan
6224;BME280;3145;42.726;23.342;2023-02-20T06:42:55;95957.78;;;12.17;nan
6224;BME280;3145;42.726;23.342;2023-02-20T06:45:21;95963.78;;;12.03;nan
6224;BME280;3145;42.726;23.342;2023-02-20T06:47:48;95962.34;;;11.93;nan
6224;BME280;3145;42.726;23.342;2023-02-20T06:50:15;95961.44;;;11.70;nan
6224;BME280;3145;42.726;23.342;2023-02-20T06:52:41;95976.06;;;11.26;nan
6224;BME280;3145;42.726;23.342;2023-02-20T06:55:08;95979.88;;;10.99;nan
6224;BME280;3145;42.726;23.342;2023-02-20T06:57:36;95993.91;;;10.68;nan
6224;BME280;3145;42.726;23.342;2023-02-20T07:00:04;95949.44;;;10.31;nan
6224;BME280;3145;42.726;23.342;2023-02-20T07:02:30;95981.16;;;10.39;nan
6224;BME280;3145;42.726;23.342;2023-02-20T07:04:58;95976.22;;;10.52;nan
6224;BME280;3145;42.726;23.342;2023-02-20T07:07:25;95982.81;;;10.56;nan
6224;BME280;3145;42.726;23.342;2023-02-20T07:09:52;95977.91;;;11.01;nan
6224;BME280;3145;42.726;23.342;2023-02-20T07:12:18;95959.72;;;11.06;nan
6224;BME280;3145;42.726;23.342;2023-02-20T07:14:49;95981.50;;;11.24;nan
6224;BME280;3145;42.726;23.342;2023-02-20T07:17:16;95962.69;;;11.11;nan
6224;BME280;3145;42.726;23.342;2023-02-20T07:19:42;95975.25;;;11.25;nan
6224;BME280;3145;42.726;23.342;2023-02-20T07:22:09;95982.28;;;11.73;nan
6224;BME280;3145;42.726;23.342;2023-02-20T07:24:36;95972.53;;;11.73;nan
6224;BME280;3145;42.726;23.342;2023-02-20T07:27:05;95979.16;;;11.53;nan
6224;BME280;3145;42.726;23.342;2023-02-20T07:29:34;95973.22;;;11.43;nan
6224;BME280;3145;42.726;23.342;2023-02-20T07:32:03;95982.19;;;11.18;nan
6224;BME280;3145;42.726;23.342;2023-02-20T07:34:29;95957.91;;;10.83;nan
6224;BME280;3145;42.726;23.342;2023-02-20T07:36:56;95962.84;;;10.62;nan
6224;BME280;3145;42.726;23.342;2023-02-20T07:39:23;95954.59;;;10.73;nan
6224;BME280;3145;42.726;23.342;2023-02-20T07:41:50;95987.50;;;10.86;nan
6224;BME280;3145;42.726;23.342;2023-02-20T07:44:17;95786.25;;;9.53;nan
6224;BME280;3145;42.726;23.342;2023-02-20T07:46:44;95964.69;;;10.61;nan
6224;BME280;3145;42.726;23.342;2023-02-20T07:49:12;95999.06;;;10.69;nan
6224;BME280;3145;42.726;23.342;2023-02-20T07:51:39;95998.72;;;10.88;nan
6224;BME280;3145;42.726;23.342;2023-02-20T07:54:05;95996.06;;;10.96;nan
6224;BME280;3145;42.726;23.342;2023-02-20T07:56:32;95993.63;;;11.11;nan
6224;BME280;3145;42.726;23.342;2023-02-20T07:58:59;95995.41;;;11.02;nan
6224;BME280;3145;42.726;23.342;2023-02-20T08:01:26;96003.50;;;11.17;nan
6224;BME280;3145;42.726;23.342;2023-02-20T08:03:53;96009.91;;;11.54;nan
6224;BME280;3145;42.726;23.342;2023-02-20T08:06:21;96003.88;;;12.00;nan
6224;BME280;3145;42.726;23.342;2023-02-20T08:08:48;95998.34;;;12.48;nan
6224;BME280;3145;42.726;23.342;2023-02-20T08:11:16;96004.84;;;12.68;nan
6224;BME280;3145;42.726;23.342;2023-02-20T08:13:43;96002.78;;;12.78;nan
6224;BME280;3145;42.726;23.342;2023-02-20T08:16:10;96004.78;;;13.07;nan
6224;BME280;3145;42.726;23.342;2023-02-20T08:18:37;96016.09;;;13.23;nan
6224;BME280;3145;42.726;23.342;2023-02-20T08:21:04;96000.72;;;13.33;nan
6224;BME280;3145;42.726;23.342;2023-02-20T08:23:32;95915.75;;;13.04;nan
6224;BME280;3145;42.726;23.342;2023-02-20T08:25:59;96010.50;;;13.55;nan
6224;BME280;3145;42.726;23.342;2023-02-20T08:28:26;96033.13;;;13.80;nan
6224;BME280;3145;42.726;23.342;2023-02-20T08:30:52;95995.28;;;13.12;nan
6224;BME280;3145;42.726;23.342;2023-02-20T08:33:19;95932.25;;;12.69;nan
6224;BME280;3145;42.726;23.342;2023-02-20T08:35:46;96014.75;;;13.42;nan
6224;BME280;3145;42.726;23.342;2023-02-20T08:38:25;95956.34;;;13.27;nan
6224;BME280;3145;42.726;23.342;2023-02-20T08:40:53;96007.75;;;13.63;nan
6224;BME280;3145;42.726;23.342;2023-02-20T08:43:20;96014.97;;;13.69;nan
6224;BME280;3145;42.726;23.342;2023-02-20T08:45:48;96016.19;;;13.81;nan
6224;BME280;3145;42.726;23.342;2023-02-20T08:48:14;96017.84;;;14.12;nan
6224;BME280;3145;42.726;23.342;2023-02-20T08:50:41;96000.81;;;13.92;nan
6224;BME280;3145;42.726;23.342;2023-02-20T08:53:08;95994.22;;;13.88;nan
6224;BME280;3145;42.726;23.342;2023-02-20T08:55:35;95995.59;;;13.83;nan
6224;BME280;3145;42.726;23.342;2023-02-20T08:58:03;96001.34;;;14.02;nan
6224;BME280;3145;42.726;23.342;2023-02-20T09:00:29;96014.81;;;14.00;nan
6224;BME280;3145;42.726;23.342;2023-02-20T09:02:56;95992.47;;;13.80;nan
6224;BME280;3145;42.726;23.342;2023-02-20T09:05:24;95994.56;;;13.84;nan
6224;BME280;3145;42.726;23.342;2023-02-20T09:07:51;95818.78;;;12.65;nan
6224;BME280;3145;42.726;23.342;2023-02-20T09:10:18;96008.31;;;13.88;nan
6224;BME280;3145;42.726;23.342;2023-02-20T09:12:45;95991.66;;;14.09;nan
6224;BME280;3145;42.726;23.342;2023-02-20T09:15:13;95995.69;;;14.05;nan
6224;BME280;3145;42.726;23.342;2023-02-20T09:17:43;95992.38;;;14.02;nan
6224;BME280;3145;42.726;23.342;2023-02-20T09:20:11;95986.25;;;14.02;nan
6224;BME280;3145;42.726;23.342;2023-02-20T09:22:39;95973.78;;;13.88;nan
6224;BME280;3145;42.726;23.342;2023-02-20T09:25:06;95940.69;;;13.90;nan
6224;BME280;3145;42.726;23.342;2023-02-20T09:27:33;95976.63;;;14.30;nan
6224;BME280;3145;42.726;23.342;2023-02-20T09:30:00;95973.56;;;14.48;nan
6224;BME280;3145;42.726;23.342;2023-02-20T09:32:28;96005.22;;;14.78;nan
6224;BME280;3145;42.726;23.342;2023-02-20T09:34:55;95991.41;;;14.54;nan
6224;BME280;3145;42.726;23.342;2023-02-20T09:37:23;95881.16;;;14.00;nan
6224;BME280;3145;42.726;23.342;2023-02-20T09:39:50;95970.06;;;14.83;nan
6224;BME280;3145;42.726;23.342;2023-02-20T09:42:31;95982.13;;;14.64;nan
6224;BME280;3145;42.726;23.342;2023-02-20T09:45:05;95996.97;;;14.73;nan
6224;BME280;3145;42.726;23.342;2023-02-20T09:48:00;95971.19;;;14.38;nan
6224;BME280;3145;42.726;23.342;2023-02-20T09:50:35;95982.66;;;14.39;nan
6224;BME280;3145;42.726;23.342;2023-02-20T09:53:09;95978.91;;;14.33;nan
6224;BME280;3145;42.726;23.342;2023-02-20T09:55:42;95985.72;;;14.21;nan
6224;BME280;3145;42.726;23.342;2023-02-20T09:58:17;95997.31;;;14.06;nan
6224;BME280;3145;42.726;23.342;2023-02-20T10:00:46;95994.03;;;14.04;nan
6224;BME280;3145;42.726;23.342;2023-02-20T10:03:21;95993.13;;;13.97;nan
6224;BME280;3145;42.726;23.342;2023-02-20T10:05:51;95996.78;;;13.96;nan
6224;BME280;3145;42.726;23.342;2023-02-20T10:08:20;96001.19;;;13.88;nan
6224;BME280;3145;42.726;23.342;2023-02-20T10:10:49;95978.09;;;14.04;nan
6224;BME280;3145;42.726;23.342;2023-02-20T10:13:43;95945.53;;;14.02;nan
6224;BME280;3145;42.726;23.342;2023-02-20T10:16:20;95983.75;;;14.15;nan
6224;BME280;3145;42.726;23.342;2023-02-20T10:19:02;95974.22;;;14.35;nan
6224;BME280;3145;42.726;23.342;2023-02-20T10:21:39;95982.13;;;14.29;nan
6224;BME280;3145;42.726;23.342;2023-02-20T10:24:21;95966.16;;;14.29;nan
6224;BME280;3145;42.726;23.342;2023-02-20T10:26:53;95965.84;;;14.74;nan
6224;BME280;3145;42.726;23.342;2023-02-20T10:29:24;95883.75;;;14.50;nan
6224;BME280;3145;42.726;23.342;2023-02-20T10:31:58;95952.50;;;14.88;nan
6224;BME280;3145;42.726;23.342;2023-02-20T10:34:31;95927.28;;;14.63;nan
6224;BME280;3145;42.726;23.342;2023-02-20T10:37:05;95925.28;;;14.65;nan
6224;BME280;3145;42.726;23.342;2023-02-20T10:39:34;95956.34;;;14.65;nan
6224;BME280;3145;42.726;23.342;2023-02-20T10:42:09;95917.34;;;14.51;nan
6224;BME280;3145;42.726;23.342;2023-02-20T10:44:44;95934.75;;;14.74;nan
6224;BME280;3145;42.726;23.342;2023-02-20T10:47:19;95903.25;;;14.36;nan
6224;BME280;3145;42.726;23.342;2023-02-20T10:49:54;95949.81;;;14.67;nan
6224;BME280;3145;42.726;23.342;2023-02-20T10:52:25;95955.84;;;14.55;nan
6224;BME280;3145;42.726;23.342;2023-02-20T10:54:55;95952.66;;;14.66;nan
6224;BME280;3145;42.726;23.342;2023-02-20T10:57:30;95913.28;;;14.55;nan
6224;BME280;3145;42.726;23.342;2023-02-20T11:00:02;95947.56;;;14.85;nan
6224;BME280;3145;42.726;23.342;2023-02-20T11:02:33;95935.81;;;15.01;nan
6224;BME280;3145;42.726;23.342;2023-02-20T11:05:07;95976.13;;;15.19;nan
6224;BME280;3145;42.726;23.342;2023-02-20T11:07:34;95970.31;;;14.88;nan
6224;BME280;3145;42.726;23.342;2023-02-20T11:10:01;95957.56;;;14.83;nan
6224;BME280;3145;42.726;23.342;2023-02-20T11:12:30;95914.03;;;14.49;nan
6224;BME280;3145;42.726;23.342;2023-02-20T11:15:05;95940.66;;;14.91;nan
6224;BME280;3145;42.726;23.342;2023-02-20T11:17:33;95942.47;;;15.11;nan
6224;BME280;3145;42.726;23.342;2023-02-20T11:20:02;95957.31;;;15.41;nan
6224;BME280;3145;42.726;23.342;2023-02-20T11:22:39;95961.19;;;15.39;nan
6224;BME280;3145;42.726;23.342;2023-02-20T11:25:17;95954.69;;;15.27;nan
6224;BME280;3145;42.726;23.342;2023-02-20T11:27:47;95960.38;;;15.45;nan
6224;BME280;3145;42.726;23.342;2023-02-20T11:30:27;95947.25;;;15.43;nan
6224;BME280;3145;42.726;23.342;2023-02-20T11:33:00;95935.19;;;15.20;nan
6224;BME280;3145;42.726;23.342;2023-02-20T11:35:32;95932.19;;;15.57;nan
6224;BME280;3145;42.726;23.342;2023-02-20T11:38:26;95925.88;;;15.58;nan
6224;BME280;3145;42.726;23.342;2023-02-20T11:41:05;95936.69;;;15.50;nan
6224;BME280;3145;42.726;23.342;2023-02-20T11:43:34;95930.81;;;15.12;nan
6224;BME280;3145;42.726;23.342;2023-02-20T11:46:13;95910.22;;;15.00;nan
6224;BME280;3145;42.726;23.342;2023-02-20T11:48:57;95910.75;;;14.89;nan
6224;BME280;3145;42.726;23.342;2023-02-20T11:51:33;95927.94;;;15.14;nan
6224;BME280;3145;42.726;23.342;2023-02-20T11:54:09;95935.28;;;15.33;nan
6224;BME280;3145;42.726;23.342;2023-02-20T11:56:36;95852.53;;;14.79;nan
6224;BME280;3145;42.726;23.342;2023-02-20T11:59:25;95920.97;;;15.13;nan
6224;BME280;3145;42.726;23.342;2023-02-20T12:01:52;95918.22;;;15.00;nan
6224;BME280;3145;42.726;23.342;2023-02-20T12:04:21;95873.56;;;14.74;nan
6224;BME280;3145;42.726;23.342;2023-02-20T12:06:50;95749.09;;;14.00;nan
6224;BME280;3145;42.726;23.342;2023-02-20T12:09:18;95916.25;;;14.87;nan
6224;BME280;3145;42.726;23.342;2023-02-20T12:11:46;95891.63;;;14.58;nan
6224;BME280;3145;42.726;23.342;2023-02-20T12:14:15;95912.03;;;14.72;nan
6224;BME280;3145;42.726;23.342;2023-02-20T12:16:59;95900.81;;;14.76;nan
6224;BME280;3145;42.726;23.342;2023-02-20T12:19:34;95898.03;;;14.84;nan
6224;BME280;3145;42.726;23.342;2023-02-20T12:22:12;95902.00;;;14.74;nan
6224;BME280;3145;42.726;23.342;2023-02-20T12:25:06;95892.75;;;14.70;nan
6224;BME280;3145;42.726;23.342;2023-02-20T12:27:52;95904.22;;;14.70;nan
6224;BME280;3145;42.726;23.342;2023-02-20T12:30:45;95907.19;;;14.61;nan
6224;BME280;3145;42.726;23.342;2023-02-20T12:33:30;95918.28;;;14.64;nan
6224;BME280;3145;42.726;23.342;2023-02-20T12:36:10;95915.44;;;14.66;nan
6224;BME280;3145;42.726;23.342;2023-02-20T12:38:48;95893.13;;;14.46;nan
6224;BME280;3145;42.726;23.342;2023-02-20T12:41:24;95917.09;;;14.67;nan
6224;BME280;3145;42.726;23.342;2023-02-20T12:44:09;95933.19;;;14.80;nan
6224;BME280;3145;42.726;23.342;2023-02-20T12:46:48;95932.81;;;14.83;nan
6224;BME280;3145;42.726;23.342;2023-02-20T12:49:31;95924.19;;;14.81;nan
6224;BME280;3145;42.726;23.342;2023-02-20T12:52:11;95925.81;;;14.82;nan
6224;BME280;3145;42.726;23.342;2023-02-20T12:54:47;95922.22;;;14.89;nan
6224;BME280;3145;42.726;23.342;2023-02-20T12:57:21;95907.47;;;14.87;nan
6224;BME280;3145;42.726;23.342;2023-02-20T12:59:55;95877.44;;;14.72;nan
6224;BME280;3145;42.726;23.342;2023-02-20T13:02:26;95891.38;;;14.74;nan
6224;BME280;3145;42.726;23.342;2023-02-20T13:04:57;95904.78;;;14.66;nan
6224;BME280;3145;42.726;23.342;2023-02-20T13:07:29;95892.63;;;14.57;nan
6224;BME280;3145;42.726;23.342;2023-02-20T13:10:07;95908.53;;;14.50;nan
6224;BME280;3145;42.726;23.342;2023-02-20T13:12:34;95916.69;;;14.28;nan
6224;BME280;3145;42.726;23.342;2023-02-20T13:15:17;95904.00;;;14.30;nan
6224;BME280;3145;42.726;23.342;2023-02-20T13:17:51;95917.25;;;14.44;nan
6224;BME280;3145;42.726;23.342;2023-02-20T13:20:23;95923.94;;;14.55;nan
6224;BME280;3145;42.726;23.342;2023-02-20T13:23:00;95930.13;;;14.62;nan
6224;BME280;3145;42.726;23.342;2023-02-20T13:25:40;95932.53;;;14.57;nan
6224;BME280;3145;42.726;23.342;2023-02-20T13:28:34;95920.69;;;14.38;nan
6224;BME280;3145;42.726;23.342;2023-02-20T13:31:09;95923.56;;;14.22;nan
6224;BME280;3145;42.726;23.342;2023-02-20T13:33:37;95922.34;;;14.25;nan
6224;BME280;3145;42.726;23.342;2023-02-20T13:36:11;95911.53;;;14.12;nan
6224;BME280;3145;42.726;23.342;2023-02-20T13:38:40;95880.84;;;14.09;nan
6224;BME280;3145;42.726;23.342;2023-02-20T13:41:09;95914.75;;;14.07;nan
6224;BME280;3145;42.726;23.342;2023-02-20T13:43:36;95926.56;;;14.19;nan
6224;BME280;3145;42.726;23.342;2023-02-20T13:46:16;95925.84;;;14.11;nan
6224;BME280;3145;42.726;23.342;2023-02-20T13:48:48;95948.19;;;14.02;nan
6224;BME280;3145;42.726;23.342;2023-02-20T13:51:29;95937.41;;;13.88;nan
6224;BME280;3145;42.726;23.342;2023-02-20T13:54:02;95926.25;;;13.49;nan
6224;BME280;3145;42.726;23.342;2023-02-20T13:56:45;95943.72;;;13.58;nan
6224;BME280;3145;42.726;23.342;2023-02-20T13:59:16;95889.41;;;13.17;nan
6224;BME280;3145;42.726;23.342;2023-02-20T14:01:53;95944.91;;;13.41;nan